Time;durP1;ratioP1;P1;durP2;ratioP2;P2;SDS_P1;SDS_P2;PMS_P1;PMS_P2;Temp;Humidity;BMP_temperature;BMP_pressure;BME280_temperature;BME280_humidity;BME280_pressure;Samples;Min_cycle;Max_cycle;Signal;HPM_P1;HPM_P2
2022/10/03 00:01:14;;;;;;;1.00;0.90;;;12.90;99.90;;;;;;5091637;28;20390;-75
2022/10/03 00:03:47;;;;;;;1.90;1.70;;;12.90;99.90;;;;;;5092958;28;20457;-75
2022/10/03 00:06:23;;;;;;;2.33;2.13;;;13.00;99.90;;;;;;5093226;28;20378;-75
2022/10/03 00:09:03;;;;;;;3.08;2.50;;;12.80;99.90;;;;;;5093043;28;20382;-76
2022/10/03 00:11:34;;;;;;;3.20;2.90;;;12.80;99.90;;;;;;5093024;28;20440;-75
2022/10/03 00:14:38;;;;;;;2.78;2.47;;;13.00;99.90;;;;;;5092683;28;20477;-74
2022/10/03 00:17:26;;;;;;;2.60;2.40;;;13.00;99.90;;;;;;5010368;28;20444;-74
2022/10/03 00:20:06;;;;;;;2.83;2.33;;;13.00;99.90;;;;;;5030311;28;20497;-75
2022/10/03 00:22:50;;;;;;;3.40;3.10;;;12.90;99.90;;;;;;5067263;28;20936;-75
2022/10/03 00:25:36;;;;;;;3.00;2.70;;;13.00;99.90;;;;;;5092567;28;20378;-75
2022/10/03 00:28:08;;;;;;;3.50;3.20;;;13.00;99.90;;;;;;5092702;28;20929;-75
2022/10/03 00:30:59;;;;;;;4.55;3.85;;;13.00;99.90;;;;;;5092190;28;20398;-75
2022/10/03 00:33:33;;;;;;;6.20;4.63;;;13.10;99.90;;;;;;5092529;28;20374;-75
2022/10/03 00:36:05;;;;;;;4.78;4.10;;;13.10;99.90;;;;;;5092462;28;21025;-76
2022/10/03 00:39:16;;;;;;;5.10;4.60;;;13.00;99.90;;;;;;5090479;28;20911;-75
2022/10/03 00:41:52;;;;;;;6.40;5.70;;;13.20;99.90;;;;;;5090764;28;20422;-75
2022/10/03 00:44:45;;;;;;;6.53;5.70;;;13.20;99.90;;;;;;5092074;28;20574;-75
2022/10/03 00:47:40;;;;;;;6.72;5.07;;;13.10;99.90;;;;;;5090924;28;20447;-75
2022/10/03 00:50:20;;;;;;;6.07;4.97;;;13.10;99.90;;;;;;5091424;28;20374;-75
2022/10/03 00:52:56;;;;;;;5.70;5.10;;;13.20;99.90;;;;;;5092024;28;20390;-75
2022/10/03 00:55:24;;;;;;;5.78;5.28;;;13.20;99.90;;;;;;5091024;28;20458;-75
2022/10/03 00:57:57;;;;;;;5.55;4.90;;;13.20;99.90;;;;;;5091806;28;20398;-75
2022/10/03 01:00:29;;;;;;;5.72;4.43;;;13.20;99.90;;;;;;5091871;28;20386;-75
2022/10/03 01:03:45;;;;;;;3.80;3.50;;;13.10;99.90;;;;;;5091774;28;20374;-76
2022/10/03 01:06:25;;;;;;;3.13;2.83;;;13.10;99.90;;;;;;5088461;28;20382;-76
2022/10/03 01:09:10;;;;;;;3.50;3.20;;;13.00;99.90;;;;;;5091883;28;20780;-75
2022/10/03 01:11:38;;;;;;;3.83;3.40;;;12.90;99.90;;;;;;5091352;28;20386;-76
2022/10/03 01:14:45;;;;;;;3.40;3.10;;;13.00;99.90;;;;;;5091260;28;20374;-75
2022/10/03 01:17:17;;;;;;;4.10;3.70;;;13.10;99.90;;;;;;5085679;28;20409;-75
2022/10/03 01:20:13;;;;;;;4.55;3.90;;;13.20;99.90;;;;;;5091583;28;20386;-75
2022/10/03 01:23:00;;;;;;;4.22;3.22;;;13.20;99.90;;;;;;5089507;28;20883;-75
2022/10/03 01:25:28;;;;;;;3.73;3.43;;;13.20;99.90;;;;;;5091346;28;20386;-76
2022/10/03 01:30:59;;;;;;;5.80;5.30;;;13.00;99.90;;;;;;5090354;28;20389;-74
2022/10/03 01:33:34;;;;;;;4.85;4.45;;;13.10;99.90;;;;;;5090763;28;20929;-74
2022/10/03 01:36:09;;;;;;;6.35;5.13;;;13.10;99.90;;;;;;5091291;28;20410;-74
2022/10/03 01:38:46;;;;;;;5.03;4.60;;;13.10;99.90;;;;;;5091125;28;20747;-75
2022/10/03 01:41:27;;;;;;;5.20;4.60;;;13.20;99.90;;;;;;5090996;28;20393;-75
2022/10/03 01:44:15;;;;;;;4.70;4.30;;;13.10;99.90;;;;;;5090817;28;20378;-75
2022/10/03 01:46:43;;;;;;;4.70;4.30;;;13.10;99.90;;;;;;5090932;28;20484;-74
2022/10/03 01:49:38;;;;;;;5.00;4.60;;;13.20;99.90;;;;;;5090028;28;20378;-76
2022/10/03 01:52:20;;;;;;;4.72;4.32;;;13.10;99.90;;;;;;5089620;28;20386;-76
2022/10/03 01:55:18;;;;;;;4.78;4.38;;;13.10;99.90;;;;;;5090451;28;20390;-75
2022/10/03 01:58:11;;;;;;;5.72;5.13;;;13.20;99.90;;;;;;5073276;28;20413;-75
2022/10/03 02:01:00;;;;;;;4.43;4.03;;;13.10;99.90;;;;;;5090822;28;20378;-76
2022/10/03 02:03:36;;;;;;;5.30;4.57;;;13.20;99.90;;;;;;5090187;28;20759;-75
2022/10/03 02:06:26;;;;;;;4.82;4.43;;;13.20;99.90;;;;;;5083095;28;20467;-76
2022/10/03 02:09:26;;;;;;;4.95;4.55;;;13.10;99.90;;;;;;5087848;28;20402;-75
2022/10/03 02:12:02;;;;;;;4.60;4.20;;;13.20;99.90;;;;;;5083694;28;20382;-75
2022/10/03 02:14:58;;;;;;;4.85;4.43;;;13.20;99.90;;;;;;5086231;28;20420;-75
2022/10/03 02:17:44;;;;;;;4.90;4.50;;;13.30;99.90;;;;;;5091287;28;20406;-76
2022/10/03 02:20:32;;;;;;;5.20;4.60;;;13.20;99.90;;;;;;5087418;28;20384;-75
2022/10/03 02:22:59;;;;;;;5.30;4.65;;;13.20;99.90;;;;;;5092840;28;20403;-76
2022/10/03 02:25:39;;;;;;;5.43;4.93;;;13.20;99.90;;;;;;5109671;28;20472;-75
2022/10/03 02:28:08;;;;;;;5.13;4.63;;;13.20;99.90;;;;;;5092677;28;20394;-74
2022/10/03 02:31:17;;;;;;;5.32;4.82;;;13.20;99.90;;;;;;5089642;28;20397;-76
2022/10/03 02:34:02;;;;;;;5.13;4.47;;;13.20;99.90;;;;;;5084317;28;20846;-76
2022/10/03 02:36:52;;;;;;;7.18;5.90;;;13.10;99.90;;;;;;5090015;28;20439;-76
2022/10/03 02:39:52;;;;;;;5.30;4.80;;;13.20;99.90;;;;;;5089775;28;20390;-76
2022/10/03 02:42:56;;;;;;;5.43;4.93;;;13.20;99.90;;;;;;5090285;28;20374;-76
2022/10/03 02:46:00;;;;;;;5.68;5.03;;;13.20;99.90;;;;;;5090299;28;20451;-75
2022/10/03 02:48:41;;;;;;;5.60;5.00;;;13.30;99.90;;;;;;5090078;28;20848;-76
2022/10/03 02:51:39;;;;;;;5.57;5.07;;;13.10;99.90;;;;;;5088857;28;20408;-76
2022/10/03 02:54:41;;;;;;;6.50;5.90;;;13.10;99.90;;;;;;5089666;28;20767;-75
2022/10/03 02:57:31;;;;;;;7.15;6.45;;;13.10;99.90;;;;;;5089465;28;20471;-76
2022/10/03 03:00:20;;;;;;;8.00;7.20;;;13.00;99.90;;;;;;5090195;28;20459;-76
2022/10/03 03:03:12;;;;;;;9.80;8.68;;;12.90;99.90;;;;;;5096408;28;20399;-76
2022/10/03 03:05:43;;;;;;;9.13;8.23;;;12.90;99.90;;;;;;5096676;28;20378;-76
2022/10/03 03:08:35;;;;;;;10.25;9.13;;;12.80;99.90;;;;;;5096763;28;20389;-75
2022/10/03 03:11:19;;;;;;;10.25;9.25;;;12.90;99.90;;;;;;5096170;28;20398;-75
2022/10/03 03:14:00;;;;;;;11.07;9.98;;;12.90;99.90;;;;;;5095546;28;20504;-75
2022/10/03 03:16:49;;;;;;;11.02;9.93;;;12.80;99.90;;;;;;5096363;28;20455;-75
2022/10/03 03:19:47;;;;;;;11.30;10.10;;;12.90;99.90;;;;;;5096897;28;21103;-76
2022/10/03 03:22:26;;;;;;;11.18;9.98;;;13.00;99.90;;;;;;5096447;28;20409;-76
2022/10/03 03:25:22;;;;;;;11.02;9.90;;;13.00;99.90;;;;;;5094963;28;20859;-76
2022/10/03 03:28:12;;;;;;;11.20;10.00;;;12.90;99.90;;;;;;5096456;28;20409;-75
2022/10/03 03:30:55;;;;;;;12.70;11.40;;;12.80;99.90;;;;;;5096628;28;20389;-75
2022/10/03 03:33:52;;;;;;;11.40;10.20;;;12.90;99.90;;;;;;5096616;28;20414;-76
2022/10/03 03:36:40;;;;;;;11.02;9.93;;;12.90;99.90;;;;;;5095479;28;20400;-76
2022/10/03 03:39:53;;;;;;;10.60;9.50;;;12.90;99.90;;;;;;5076456;28;20395;-75
2022/10/03 03:42:54;;;;;;;13.00;11.70;;;12.90;99.90;;;;;;5076641;28;20474;-76
2022/10/03 03:45:39;;;;;;;12.30;10.57;;;12.80;99.90;;;;;;5076545;28;20379;-75
2022/10/03 03:48:37;;;;;;;11.20;9.63;;;12.70;99.90;;;;;;5075142;28;20388;-76
2022/10/03 03:51:14;;;;;;;11.70;10.50;;;12.70;99.90;;;;;;5076271;28;20379;-75
2022/10/03 03:54:08;;;;;;;13.63;10.23;;;12.70;99.90;;;;;;5092083;28;20398;-76
2022/10/03 03:56:34;;;;;;;12.07;10.30;;;12.80;99.90;;;;;;5096304;28;20434;-76
2022/10/03 03:59:12;;;;;;;11.60;9.93;;;12.80;99.90;;;;;;5096420;28;20759;-75
2022/10/03 04:01:49;;;;;;;10.95;9.85;;;12.80;99.90;;;;;;5096711;28;20800;-76
2022/10/03 04:04:35;;;;;;;12.57;11.00;;;12.70;99.90;;;;;;5094940;28;20402;-75
2022/10/03 04:07:27;;;;;;;12.20;10.90;;;12.70;99.90;;;;;;5096502;28;20652;-75
2022/10/03 04:10:30;;;;;;;12.30;10.82;;;12.70;99.90;;;;;;5096145;28;20397;-76
2022/10/03 04:13:17;;;;;;;12.63;10.38;;;12.80;99.90;;;;;;5092862;28;20755;-75
2022/10/03 04:16:02;;;;;;;10.90;9.80;;;12.70;99.90;;;;;;5093255;28;20396;-76
2022/10/03 04:19:02;;;;;;;11.48;10.27;;;12.70;99.90;;;;;;5092916;28;20959;-76
2022/10/03 04:21:34;;;;;;;11.90;9.50;;;12.80;99.90;;;;;;5091919;28;20398;-76
2022/10/03 04:23:59;;;;;;;10.77;9.15;;;12.70;99.90;;;;;;5091404;28;20391;-76
2022/10/03 04:26:28;;;;;;;9.90;8.90;;;12.70;99.90;;;;;;5092874;28;20385;-76
2022/10/03 04:29:42;;;;;;;11.45;8.98;;;12.70;99.90;;;;;;5092608;28;20930;-75
2022/10/03 04:32:56;;;;;;;9.35;8.00;;;12.60;99.90;;;;;;5068367;28;20398;-76
2022/10/03 04:35:42;;;;;;;10.07;9.07;;;12.60;99.90;;;;;;5092836;28;20887;-74
2022/10/03 04:38:35;;;;;;;9.25;8.25;;;12.70;99.90;;;;;;5092606;28;20413;-75
2022/10/03 04:41:26;;;;;;;10.40;9.30;;;12.60;99.90;;;;;;5092697;28;20474;-75
2022/10/03 04:44:10;;;;;;;9.60;8.60;;;12.60;99.90;;;;;;5092061;28;20416;-74
2022/10/03 04:46:51;;;;;;;9.35;8.35;;;12.50;99.90;;;;;;5091434;28;20397;-75
2022/10/03 04:49:31;;;;;;;10.10;8.80;;;12.50;99.90;;;;;;5092562;28;20389;-75
2022/10/03 04:52:24;;;;;;;9.40;8.50;;;12.50;99.90;;;;;;5092579;28;20390;-75
2022/10/03 04:55:10;;;;;;;11.40;10.20;;;12.50;99.90;;;;;;5092219;28;20736;-75
2022/10/03 04:57:46;;;;;;;10.93;8.82;;;12.40;99.90;;;;;;5091008;28;20437;-74
2022/10/03 05:00:22;;;;;;;14.60;9.85;;;12.40;99.90;;;;;;5091866;28;20398;-75
2022/10/03 05:03:13;;;;;;;9.38;8.45;;;12.30;99.90;;;;;;5090490;28;20399;-75
2022/10/03 05:05:55;;;;;;;9.13;8.23;;;12.30;99.90;;;;;;5090745;28;20386;-75
2022/10/03 05:08:38;;;;;;;8.15;7.20;;;12.30;99.90;;;;;;5092069;28;20937;-75
2022/10/03 05:11:17;;;;;;;9.15;8.05;;;12.30;99.90;;;;;;5092203;28;20371;-75
2022/10/03 05:13:58;;;;;;;7.47;6.70;;;12.40;99.90;;;;;;5091209;28;20390;-75
2022/10/03 05:16:35;;;;;;;7.78;7.07;;;12.40;99.90;;;;;;5091867;28;20401;-75
2022/10/03 05:19:36;;;;;;;10.05;6.97;;;12.30;99.90;;;;;;5090735;28;20370;-75
2022/10/03 05:22:32;;;;;;;7.40;6.70;;;12.30;99.90;;;;;;5091051;28;20926;-75
2022/10/03 05:25:12;;;;;;;7.23;6.63;;;12.20;99.90;;;;;;5090661;28;20405;-74
2022/10/03 05:27:38;;;;;;;7.35;6.65;;;12.30;99.90;;;;;;5092832;28;20382;-75
2022/10/03 05:30:19;;;;;;;7.90;6.80;;;12.30;99.90;;;;;;5092241;28;20388;-75
2022/10/03 05:32:58;;;;;;;7.43;6.72;;;12.30;99.90;;;;;;5092803;28;20875;-75
2022/10/03 05:35:56;;;;;;;9.40;6.75;;;12.30;99.90;;;;;;5091257;28;20394;-75
2022/10/03 05:38:56;;;;;;;7.80;7.00;;;12.30;99.90;;;;;;5091830;28;20401;-75
2022/10/03 05:41:30;;;;;;;7.90;7.10;;;12.40;99.90;;;;;;5072282;28;20383;-74
2022/10/03 05:44:24;;;;;;;6.68;5.97;;;12.50;99.90;;;;;;5073328;28;20394;-74
2022/10/03 05:46:52;;;;;;;7.57;6.47;;;12.40;99.90;;;;;;5092337;28;20374;-75
2022/10/03 05:50:00;;;;;;;6.35;5.75;;;12.30;99.90;;;;;;5091659;28;20747;-74
2022/10/03 05:52:49;;;;;;;7.00;6.20;;;12.20;99.90;;;;;;5091498;28;20366;-74
2022/10/03 05:55:27;;;;;;;6.60;6.00;;;12.20;99.90;;;;;;5090940;28;20394;-75
2022/10/03 05:58:18;;;;;;;5.97;5.38;;;12.20;99.90;;;;;;5091622;28;20416;-75
2022/10/03 06:01:13;;;;;;;5.90;5.40;;;12.20;99.90;;;;;;5091674;28;20470;-74
2022/10/03 06:04:11;;;;;;;6.10;5.50;;;12.20;99.90;;;;;;5091118;28;20465;-75
2022/10/03 06:07:01;;;;;;;6.50;5.90;;;12.10;99.90;;;;;;5081867;28;20891;-75
2022/10/03 06:09:33;;;;;;;8.60;6.22;;;12.20;99.90;;;;;;5091362;28;20472;-75
2022/10/03 06:12:06;;;;;;;6.90;6.20;;;12.10;99.90;;;;;;5090982;28;20737;-74
2022/10/03 06:14:48;;;;;;;5.30;4.90;;;12.10;99.90;;;;;;5090816;28;20378;-73
2022/10/03 06:17:38;;;;;;;6.28;5.68;;;12.10;99.90;;;;;;5090680;28;20771;-75
2022/10/03 06:20:33;;;;;;;6.07;5.53;;;12.10;99.90;;;;;;5091034;28;20429;-74
2022/10/03 06:24:04;;;;;;;6.22;5.57;;;12.10;99.90;;;;;;5079824;28;20376;-72
2022/10/03 06:26:57;;;;;;;6.97;5.90;;;12.20;99.90;;;;;;5069402;28;20801;-74
2022/10/03 06:29:41;;;;;;;6.25;5.65;;;12.00;99.90;;;;;;5069203;28;20773;-74
2022/10/03 06:32:09;;;;;;;6.13;5.53;;;12.10;99.90;;;;;;5070646;28;20384;-74
2022/10/03 06:34:47;;;;;;;6.10;5.60;;;12.00;99.90;;;;;;5070404;28;20792;-74
2022/10/03 06:37:22;;;;;;;6.38;5.68;;;12.00;99.90;;;;;;5070564;28;20458;-74
2022/10/03 06:40:15;;;;;;;6.13;5.20;;;12.00;99.90;;;;;;5076680;28;20885;-74
2022/10/03 06:43:32;;;;;;;6.20;5.60;;;12.00;99.90;;;;;;5089776;28;20448;-74
2022/10/03 06:46:22;;;;;;;5.78;5.28;;;11.90;99.90;;;;;;5028185;28;20391;-75
2022/10/03 06:49:20;;;;;;;5.78;4.80;;;12.00;99.90;;;;;;5028029;28;20441;-74
2022/10/03 06:52:36;;;;;;;5.75;4.60;;;12.00;99.90;;;;;;5085928;28;20393;-75
2022/10/03 06:55:26;;;;;;;5.18;4.68;;;12.00;99.90;;;;;;5072638;28;20393;-74
2022/10/03 06:58:01;;;;;;;4.68;4.28;;;11.90;99.90;;;;;;5090346;28;20401;-74
2022/10/03 07:01:02;;;;;;;4.50;4.10;;;11.90;99.90;;;;;;5089103;28;20382;-74
2022/10/03 07:03:27;;;;;;;4.78;4.28;;;11.80;99.90;;;;;;5090263;28;20740;-74
2022/10/03 07:06:29;;;;;;;4.60;4.20;;;11.70;99.90;;;;;;5088815;28;20401;-74
2022/10/03 07:09:32;;;;;;;5.40;4.13;;;11.80;99.90;;;;;;5027998;28;20403;-75
2022/10/03 07:12:35;;;;;;;5.57;4.90;;;11.70;99.90;;;;;;5090438;28;20876;-74
2022/10/03 07:15:13;;;;;;;5.90;5.33;;;11.70;99.90;;;;;;5088935;28;20960;-74
2022/10/03 07:18:24;;;;;;;5.53;5.03;;;11.90;99.90;;;;;;5090086;28;20891;-75
2022/10/03 07:21:32;;;;;;;6.93;5.95;;;11.80;99.90;;;;;;5089779;28;20378;-73
2022/10/03 07:24:24;;;;;;;5.57;4.97;;;11.80;99.90;;;;;;5089547;28;20405;-74
2022/10/03 07:27:02;;;;;;;6.22;5.28;;;11.80;99.90;;;;;;5090320;28;20378;-75
2022/10/03 07:29:52;;;;;;;6.20;5.60;;;11.90;99.90;;;;;;5090363;28;20393;-72
2022/10/03 07:32:29;;;;;;;9.32;7.13;;;11.80;99.90;;;;;;5090035;28;20378;-74
2022/10/03 07:38:59;;;;;;;9.13;6.40;;;11.70;99.90;;;;;;5027157;28;20465;-75
2022/10/03 07:41:31;;;;;;;7.00;6.05;;;11.70;99.90;;;;;;5011185;28;20391;-75
2022/10/03 07:44:02;;;;;;;8.95;6.70;;;11.60;99.90;;;;;;5084625;28;20378;-74
2022/10/03 07:47:08;;;;;;;9.48;7.47;;;11.50;99.90;;;;;;5090115;28;20378;-75
2022/10/03 07:49:55;;;;;;;10.18;8.10;;;11.50;99.90;;;;;;5093697;28;20531;-74
2022/10/03 07:52:56;;;;;;;8.03;6.70;;;11.60;99.90;;;;;;5093467;28;20829;-75
2022/10/03 07:55:36;;;;;;;7.90;6.88;;;11.80;99.90;;;;;;5093611;28;20384;-74
2022/10/03 07:58:13;;;;;;;7.28;6.57;;;11.60;99.90;;;;;;5093297;28;20497;-74
2022/10/03 08:00:49;;;;;;;7.50;6.70;;;11.60;99.90;;;;;;5091902;28;20386;-75
2022/10/03 08:03:40;;;;;;;7.80;6.40;;;11.80;99.90;;;;;;5093281;28;20888;-73
2022/10/03 08:06:57;;;;;;;6.55;5.85;;;11.70;99.90;;;;;;5093788;28;20378;-75
2022/10/03 08:09:44;;;;;;;5.68;5.15;;;11.70;99.90;;;;;;5308841;22;20435;-74
2022/10/03 08:12:32;;;;;;;6.10;5.50;;;11.90;99.90;;;;;;5113699;28;20453;-74
2022/10/03 08:15:19;;;;;;;6.90;5.00;;;11.80;99.90;;;;;;5113454;28;20444;-75
2022/10/03 08:18:13;;;;;;;5.73;5.07;;;12.00;99.90;;;;;;5089118;28;20815;-72
2022/10/03 08:20:56;;;;;;;5.85;5.30;;;11.90;99.90;;;;;;5093089;28;20876;-72
2022/10/03 08:23:48;;;;;;;5.37;4.90;;;12.00;99.90;;;;;;5078754;28;20454;-73
2022/10/03 08:26:38;;;;;;;4.93;4.53;;;12.00;99.90;;;;;;5083919;28;20451;-73
2022/10/03 08:29:25;;;;;;;5.90;5.30;;;12.10;99.90;;;;;;5089316;28;20382;-74
2022/10/03 08:32:29;;;;;;;5.03;4.53;;;12.40;99.90;;;;;;5089466;28;20821;-73
2022/10/03 08:35:26;;;;;;;5.20;4.70;;;12.20;99.90;;;;;;5070168;28;20409;-73
2022/10/03 08:38:42;;;;;;;4.55;4.15;;;12.20;99.90;;;;;;5086504;28;20407;-73
2022/10/03 08:41:41;;;;;;;5.40;4.90;;;12.00;99.90;;;;;;5009489;28;20393;-73
2022/10/03 08:44:18;;;;;;;5.10;4.60;;;12.00;99.90;;;;;;5081010;28;20450;-72
2022/10/03 08:46:58;;;;;;;4.70;4.30;;;12.20;99.90;;;;;;5082359;28;20384;-74
2022/10/03 08:50:01;;;;;;;4.80;4.40;;;12.10;99.90;;;;;;5081984;28;20415;-74
2022/10/03 08:52:34;;;;;;;4.97;4.50;;;12.10;99.90;;;;;;5068914;28;20482;-72
2022/10/03 08:55:18;;;;;;;4.70;4.30;;;12.00;99.90;;;;;;5086864;28;20399;-73
2022/10/03 08:58:13;;;;;;;5.70;5.20;;;12.10;99.90;;;;;;5081784;28;20403;-73
2022/10/03 09:00:51;;;;;;;4.60;4.20;;;12.40;99.90;;;;;;5050842;28;20387;-73
2022/10/03 09:03:32;;;;;;;5.07;4.57;;;12.60;99.90;;;;;;5062781;28;20475;-74
2022/10/03 09:06:40;;;;;;;4.80;4.30;;;12.60;99.90;;;;;;5092149;28;20378;-73
2022/10/03 09:09:16;;;;;;;4.97;4.45;;;12.60;99.90;;;;;;5053971;28;20428;-73
2022/10/03 09:12:19;;;;;;;6.82;4.40;;;12.70;99.90;;;;;;5071865;28;20874;-73
2022/10/03 09:15:06;;;;;;;4.75;4.28;;;12.70;99.90;;;;;;5086826;28;20749;-72
2022/10/03 09:17:50;;;;;;;4.22;3.92;;;12.80;99.90;;;;;;5086126;28;20417;-72
2022/10/03 09:20:53;;;;;;;5.18;4.10;;;12.80;99.90;;;;;;5074144;28;20398;-72
2022/10/03 09:23:56;;;;;;;4.60;4.20;;;12.80;99.90;;;;;;5092648;28;20795;-73
2022/10/03 09:26:46;;;;;;;3.95;3.55;;;12.70;99.90;;;;;;5087288;28;20890;-74
2022/10/03 09:29:26;;;;;;;4.53;4.13;;;12.70;99.90;;;;;;5090986;28;20412;-73
2022/10/03 09:32:22;;;;;;;3.83;3.42;;;12.80;99.90;;;;;;5072283;28;21131;-74
2022/10/03 09:35:24;;;;;;;4.47;4.07;;;12.80;99.90;;;;;;5087844;28;20394;-74
2022/10/03 09:38:28;;;;;;;4.55;4.15;;;12.80;99.90;;;;;;5086521;28;20448;-73
2022/10/03 09:41:18;;;;;;;4.72;4.32;;;12.90;99.90;;;;;;5043662;28;20433;-72
2022/10/03 09:43:53;;;;;;;5.57;4.40;;;12.90;99.90;;;;;;5086128;28;20367;-72
2022/10/03 09:46:36;;;;;;;4.53;4.05;;;13.00;99.90;;;;;;5089079;28;20386;-71
2022/10/03 09:49:38;;;;;;;4.57;4.17;;;13.10;99.90;;;;;;5093915;28;20558;-71
2022/10/03 09:52:12;;;;;;;3.93;3.63;;;13.10;99.90;;;;;;5091329;28;20421;-71
2022/10/03 09:54:54;;;;;;;3.40;3.10;;;13.20;99.90;;;;;;5076278;28;20750;-72
2022/10/03 09:57:44;;;;;;;3.40;3.10;;;13.40;99.90;;;;;;5085263;28;20411;-72
2022/10/03 10:00:21;;;;;;;3.20;2.60;;;13.40;99.90;;;;;;5085585;28;20394;-72
2022/10/03 10:02:55;;;;;;;3.30;3.00;;;13.50;99.90;;;;;;5100415;28;20764;-72
2022/10/03 10:05:50;;;;;;;4.30;3.00;;;13.60;99.90;;;;;;5092277;28;20411;-71
2022/10/03 10:08:34;;;;;;;3.30;2.60;;;13.60;99.90;;;;;;5101935;28;20395;-72
2022/10/03 10:11:15;;;;;;;3.20;2.90;;;13.80;99.90;;;;;;5104225;28;20425;-72
2022/10/03 10:14:05;;;;;;;3.00;2.80;;;13.90;99.90;;;;;;5102904;28;20388;-71
2022/10/03 10:17:09;;;;;;;3.30;3.00;;;14.00;99.90;;;;;;5106758;28;20742;-72
2022/10/03 10:19:43;;;;;;;3.20;3.00;;;13.90;99.90;;;;;;5085847;28;20426;-72
2022/10/03 10:22:31;;;;;;;3.03;2.72;;;13.80;99.90;;;;;;5103553;28;20860;-72
2022/10/03 10:25:11;;;;;;;3.40;2.88;;;13.80;99.90;;;;;;5081306;28;20497;-71
2022/10/03 10:27:55;;;;;;;2.70;2.50;;;13.80;99.90;;;;;;5106642;28;20725;-72
2022/10/03 10:30:53;;;;;;;6.00;2.70;;;13.90;99.90;;;;;;5090322;28;20465;-71
2022/10/03 10:33:55;;;;;;;2.50;2.30;;;13.90;99.90;;;;;;5090321;28;20465;-72
2022/10/03 10:36:54;;;;;;;2.28;2.08;;;13.90;99.90;;;;;;5090383;28;20427;-71
2022/10/03 10:39:53;;;;;;;2.53;2.30;;;14.00;99.90;;;;;;5090435;28;20386;-71
2022/10/03 10:42:48;;;;;;;2.47;2.28;;;14.20;99.90;;;;;;5090363;28;20430;-72
2022/10/03 10:45:34;;;;;;;2.90;2.50;;;14.40;99.90;;;;;;5090704;28;20469;-72
2022/10/03 10:48:19;;;;;;;2.08;1.98;;;14.70;99.90;;;;;;5090190;28;20378;-72
2022/10/03 10:51:09;;;;;;;4.35;2.45;;;15.00;99.90;;;;;;5090366;28;20394;-72
2022/10/03 10:54:08;;;;;;;2.40;2.20;;;14.90;99.90;;;;;;5090067;28;20472;-71
2022/10/03 10:56:54;;;;;;;2.28;2.10;;;14.80;99.90;;;;;;5089990;28;20447;-71
2022/10/03 10:59:45;;;;;;;3.20;2.45;;;14.90;99.90;;;;;;5090143;28;20375;-71
2022/10/03 11:02:45;;;;;;;2.60;2.40;;;15.30;99.90;;;;;;5090351;28;20386;-71
2022/10/03 11:05:35;;;;;;;3.00;2.50;;;15.50;99.90;;;;;;5090309;28;20377;-72
2022/10/03 11:08:49;;;;;;;2.28;2.10;;;15.50;99.90;;;;;;5090241;28;20408;-72
2022/10/03 11:11:29;;;;;;;2.40;2.20;;;15.90;99.90;;;;;;5089732;28;20884;-72
2022/10/03 11:14:27;;;;;;;1.92;1.73;;;16.20;99.90;;;;;;5090188;28;20378;-71
2022/10/03 11:17:23;;;;;;;1.70;1.60;;;16.40;99.90;;;;;;5090075;28;20775;-71
2022/10/03 11:19:58;;;;;;;2.70;1.60;;;17.00;99.90;;;;;;5090199;28;20376;-72
2022/10/03 11:22:51;;;;;;;2.75;1.70;;;17.50;99.90;;;;;;5086734;28;20877;-72
2022/10/03 11:25:36;;;;;;;1.90;1.80;;;17.20;99.90;;;;;;5078179;28;20390;-72
2022/10/03 11:28:53;;;;;;;1.60;1.50;;;17.60;99.90;;;;;;5093759;28;20404;-72
2022/10/03 11:31:58;;;;;;;2.60;1.75;;;16.70;99.90;;;;;;5093363;28;20400;-72
2022/10/03 11:35:00;;;;;;;2.25;2.05;;;16.10;99.90;;;;;;5055616;28;20828;-72
2022/10/03 11:37:42;;;;;;;3.45;2.20;;;15.70;99.90;;;;;;5074751;28;20535;-73
2022/10/03 11:40:45;;;;;;;2.33;2.13;;;15.40;99.90;;;;;;5077049;28;20378;-73
2022/10/03 11:43:39;;;;;;;2.35;2.20;;;15.20;99.90;;;;;;5093548;28;20434;-72
2022/10/03 11:46:11;;;;;;;2.75;2.10;;;15.10;99.90;;;;;;5093646;28;20382;-72
2022/10/03 11:48:45;;;;;;;2.00;1.90;;;15.10;99.90;;;;;;5075074;28;20394;-72
2022/10/03 11:51:35;;;;;;;3.13;2.40;;;15.60;99.90;;;;;;5093868;28;20378;-72
2022/10/03 11:54:19;;;;;;;3.10;2.60;;;16.30;99.90;;;;;;5075172;28;20394;-72
2022/10/03 11:56:49;;;;;;;3.28;2.10;;;16.70;99.90;;;;;;5093485;28;20442;-72
2022/10/03 11:59:28;;;;;;;2.47;2.20;;;17.00;99.90;;;;;;5093288;28;20381;-73
2022/10/03 12:01:54;;;;;;;2.90;2.70;;;17.70;99.90;;;;;;5093290;28;20469;-72
2022/10/03 12:04:30;;;;;;;3.67;2.97;;;18.10;99.90;;;;;;5093147;28;20544;-72
2022/10/03 12:10:31;;;;;;;3.00;2.80;;;17.20;99.90;;;;;;5093545;28;20372;-72
2022/10/03 12:12:58;;;;;;;2.90;2.60;;;16.30;99.90;;;;;;5074893;28;20390;-73
2022/10/03 12:15:33;;;;;;;3.40;2.80;;;15.90;99.90;;;;;;5093212;28;20382;-72
2022/10/03 12:18:24;;;;;;;3.22;2.92;;;15.70;99.90;;;;;;5092862;28;20425;-72
2022/10/03 12:21:10;;;;;;;2.80;2.60;;;15.40;99.90;;;;;;5093265;28;20386;-72
2022/10/03 12:23:58;;;;;;;3.30;3.00;;;15.70;99.90;;;;;;5076803;28;20375;-71
2022/10/03 12:26:48;;;;;;;2.92;2.58;;;16.00;99.90;;;;;;5072972;28;20402;-72
2022/10/03 12:29:17;;;;;;;3.30;3.00;;;15.90;99.90;;;;;;5072660;28;20415;-73
2022/10/03 12:32:20;;;;;;;3.13;2.83;;;16.20;99.90;;;;;;5054882;28;20486;-73
2022/10/03 12:35:24;;;;;;;3.20;2.90;;;16.50;99.90;;;;;;5071980;28;20668;-72
2022/10/03 12:38:27;;;;;;;3.50;3.03;;;16.60;99.90;;;;;;5073991;28;20504;-73
2022/10/03 12:41:38;;;;;;;3.38;3.08;;;16.40;99.90;;;;;;5092800;28;20389;-72
2022/10/03 12:44:28;;;;;;;3.00;2.80;;;16.90;99.90;;;;;;5058942;28;20385;-71
2022/10/03 12:47:10;;;;;;;3.50;3.03;;;17.00;99.90;;;;;;5092298;28;20396;-72
2022/10/03 12:49:41;;;;;;;3.50;3.20;;;16.80;99.90;;;;;;5091720;28;20386;-71
2022/10/03 12:52:20;;;;;;;4.15;3.75;;;16.50;99.90;;;;;;5074331;28;20382;-72
2022/10/03 12:55:14;;;;;;;3.40;3.10;;;16.30;99.90;;;;;;5092128;28;20506;-71
2022/10/03 12:57:55;;;;;;;3.85;3.55;;;16.00;99.90;;;;;;5092315;28;20402;-73
2022/10/03 13:00:27;;;;;;;4.95;3.92;;;16.00;99.90;;;;;;5091599;28;20760;-73
2022/10/03 13:03:11;;;;;;;3.97;3.58;;;16.20;99.90;;;;;;5091711;28;20886;-72
2022/10/03 13:06:02;;;;;;;4.40;3.63;;;16.00;99.90;;;;;;5092160;28;20378;-72
2022/10/03 13:08:43;;;;;;;4.38;3.33;;;16.60;99.90;;;;;;5091981;28;20385;-72
2022/10/03 13:11:24;;;;;;;4.38;3.40;;;17.10;99.90;;;;;;5092278;28;20397;-72
2022/10/03 13:14:25;;;;;;;3.85;3.55;;;17.40;99.90;;;;;;5091599;28;20447;-72
2022/10/03 13:17:18;;;;;;;3.60;3.30;;;17.50;99.90;;;;;;5071516;28;20441;-73
2022/10/03 13:20:16;;;;;;;4.50;3.92;;;17.70;99.90;;;;;;5091663;28;20398;-73
2022/10/03 13:23:11;;;;;;;3.50;3.20;;;17.50;99.90;;;;;;5083215;28;20383;-72
2022/10/03 13:25:45;;;;;;;4.60;3.40;;;17.20;99.90;;;;;;5071485;28;20469;-72
2022/10/03 13:28:25;;;;;;;4.22;3.50;;;16.70;99.90;;;;;;5071497;28;20470;-72
2022/10/03 13:30:54;;;;;;;3.72;3.35;;;16.60;99.90;;;;;;5071657;28;20426;-72
2022/10/03 13:33:27;;;;;;;3.70;3.40;;;16.50;99.90;;;;;;5066595;28;20424;-72
2022/10/03 13:36:18;;;;;;;3.88;3.50;;;16.50;99.90;;;;;;5091497;28;20825;-72
2022/10/03 13:39:11;;;;;;;3.83;3.53;;;16.60;99.90;;;;;;5091214;28;20386;-71
2022/10/03 13:42:12;;;;;;;5.25;3.40;;;16.20;99.90;;;;;;5091325;28;20377;-71
2022/10/03 13:44:44;;;;;;;5.10;4.60;;;16.20;99.90;;;;;;5091233;28;20370;-71
2022/10/03 13:47:42;;;;;;;4.70;4.22;;;16.10;99.90;;;;;;5072149;28;20477;-71
2022/10/03 13:50:26;;;;;;;5.03;4.55;;;16.00;99.90;;;;;;5091072;28;20447;-71
2022/10/03 13:53:23;;;;;;;4.77;4.27;;;15.90;99.90;;;;;;5090439;28;20420;-71
2022/10/03 13:56:03;;;;;;;4.70;4.30;;;15.80;99.90;;;;;;5091184;28;20378;-71
2022/10/03 13:59:01;;;;;;;5.68;4.55;;;15.70;99.90;;;;;;5119993;22;20443;-74
2022/10/03 14:01:33;;;;;;;4.28;3.97;;;15.50;99.90;;;;;;5111388;28;20731;-74
2022/10/03 14:04:20;;;;;;;5.40;4.90;;;15.40;99.90;;;;;;5110827;28;21217;-71
2022/10/03 14:07:08;;;;;;;5.15;4.65;;;15.70;99.90;;;;;;5111606;28;20380;-71
2022/10/03 14:09:46;;;;;;;6.88;5.40;;;15.70;99.90;;;;;;5111339;28;20417;-72
2022/10/03 14:12:30;;;;;;;5.75;5.30;;;15.70;99.90;;;;;;5111382;28;20368;-72
2022/10/03 14:15:28;;;;;;;4.80;4.30;;;15.80;99.90;;;;;;5096802;28;20469;-72
2022/10/03 14:18:09;;;;;;;5.00;4.60;;;15.80;99.90;;;;;;5091057;28;20442;-72
2022/10/03 14:21:12;;;;;;;6.70;5.70;;;15.80;99.90;;;;;;5091025;28;20405;-72
2022/10/03 14:24:04;;;;;;;6.28;5.68;;;16.00;99.90;;;;;;5074507;28;20509;-72
2022/10/03 14:26:47;;;;;;;5.60;5.10;;;16.40;99.90;;;;;;5070680;28;20395;-72
2022/10/03 14:29:21;;;;;;;4.65;4.25;;;16.40;99.90;;;;;;5078758;28;20393;-72
2022/10/03 14:31:50;;;;;;;5.50;5.00;;;16.00;99.90;;;;;;5110416;28;20387;-73
2022/10/03 14:34:37;;;;;;;5.60;5.10;;;16.10;99.90;;;;;;5105762;28;20471;-73
2022/10/03 14:37:27;;;;;;;6.40;5.13;;;16.00;99.90;;;;;;5110855;28;20487;-73
2022/10/03 14:40:15;;;;;;;5.40;4.60;;;16.00;99.90;;;;;;5110981;28;20368;-73